Time;durP1;ratioP1;P1;durP2;ratioP2;P2;SDS_P1;SDS_P2;PMS_P1;PMS_P2;Temp;Humidity;BMP_temperature;BMP_pressure;BME280_temperature;BME280_humidity;BME280_pressure;Samples;Min_cycle;Max_cycle;Signal;HPM_P1;HPM_P2
2023/02/25 05:00:49;;;;;;;3.30;0.60;;;3.50;99.90;;;;;;5716710;23;20725;-68
2023/02/25 05:03:16;;;;;;;0.20;0.20;;;3.50;99.90;;;;;;4927902;29;20325;-67
2023/02/25 05:05:42;;;;;;;0.20;0.20;;;3.50;99.90;;;;;;4929342;29;20649;-67
2023/02/25 05:08:10;;;;;;;0.20;0.20;;;3.50;99.90;;;;;;4934761;29;20206;-67
2023/02/25 05:10:36;;;;;;;0.50;0.50;;;3.50;99.90;;;;;;4922498;29;20612;-68
2023/02/25 05:13:03;;;;;;;0.30;0.30;;;3.40;99.90;;;;;;4910690;29;20222;-67
2023/02/25 05:15:30;;;;;;;0.45;0.30;;;3.40;99.90;;;;;;4908953;29;20576;-68
2023/02/25 05:17:58;;;;;;;0.45;0.45;;;3.40;99.90;;;;;;4914796;29;20218;-68
2023/02/25 05:20:24;;;;;;;0.20;0.20;;;3.40;99.90;;;;;;4914880;29;20211;-68
2023/02/25 05:22:51;;;;;;;0.60;0.60;;;3.40;99.90;;;;;;4907845;29;20238;-68
2023/02/25 05:25:18;;;;;;;0.43;0.43;;;3.30;99.90;;;;;;4907244;29;20245;-68
2023/02/25 05:27:44;;;;;;;16.00;1.27;;;3.30;99.90;;;;;;4906868;29;20211;-67
2023/02/25 05:30:12;;;;;;;0.28;0.28;;;3.30;99.90;;;;;;4909265;29;20680;-69
2023/02/25 05:32:39;;;;;;;0.28;0.28;;;3.30;99.90;;;;;;4912831;29;20223;-67
2023/02/25 05:35:08;;;;;;;0.20;0.20;;;3.30;99.90;;;;;;4908745;29;20568;-69
2023/02/25 05:37:36;;;;;;;0.20;0.20;;;3.30;99.90;;;;;;4911265;29;20237;-67
2023/02/25 05:40:03;;;;;;;1.73;1.60;;;3.30;99.90;;;;;;4904774;29;20215;-69
2023/02/25 05:42:29;;;;;;;0.10;0.10;;;3.30;99.90;;;;;;4903657;29;20235;-67
2023/02/25 05:44:56;;;;;;;0.30;0.30;;;3.30;99.90;;;;;;4911284;29;20218;-69
2023/02/25 05:47:23;;;;;;;2.15;2.10;;;3.30;99.90;;;;;;4912845;29;20202;-69
2023/02/25 05:49:49;;;;;;;0.10;0.10;;;3.30;99.90;;;;;;4903365;29;20207;-67
2023/02/25 05:52:18;;;;;;;0.95;0.95;;;3.30;99.90;;;;;;4914812;29;20237;-69
2023/02/25 05:54:44;;;;;;;0.30;0.30;;;3.30;99.90;;;;;;4907286;29;20202;-67
2023/02/25 05:57:11;;;;;;;0.40;0.40;;;3.30;99.90;;;;;;4914103;29;20218;-69
2023/02/25 05:59:38;;;;;;;0.20;0.20;;;3.30;99.90;;;;;;4913087;29;20211;-69
2023/02/25 06:02:05;;;;;;;0.10;0.10;;;3.30;99.90;;;;;;4912646;29;20703;-69
2023/02/25 06:04:31;;;;;;;0.22;0.22;;;3.30;99.90;;;;;;4902726;29;20219;-69
2023/02/25 06:06:58;;;;;;;0.40;0.40;;;3.20;99.90;;;;;;4901022;29;20222;-69
2023/02/25 06:09:26;;;;;;;0.22;0.22;;;3.20;99.90;;;;;;4905855;29;20668;-69
2023/02/25 06:11:53;;;;;;;4.63;0.55;;;3.30;99.90;;;;;;4914779;29;20234;-69
2023/02/25 06:14:20;;;;;;;0.28;0.28;;;3.30;99.90;;;;;;4905031;29;20207;-69
2023/02/25 06:16:47;;;;;;;0.32;0.32;;;3.30;99.90;;;;;;4910956;29;20214;-69
2023/02/25 06:19:14;;;;;;;0.30;0.30;;;3.30;99.90;;;;;;4909601;29;20207;-69
2023/02/25 06:21:41;;;;;;;1.20;0.65;;;3.30;99.90;;;;;;4911434;29;20528;-69
2023/02/25 06:24:08;;;;;;;0.50;0.50;;;3.30;99.90;;;;;;4906508;29;20231;-69
2023/02/25 06:26:40;;;;;;;5.40;1.75;;;3.30;99.90;;;;;;4902348;29;20214;-69
2023/02/25 06:29:07;;;;;;;11.13;0.50;;;3.30;99.90;;;;;;4913958;29;20253;-69
2023/02/25 06:31:34;;;;;;;0.20;0.20;;;3.30;99.90;;;;;;4913465;29;20233;-69
2023/02/25 06:34:01;;;;;;;0.10;0.10;;;3.30;99.90;;;;;;4908840;29;20257;-69
2023/02/25 06:36:27;;;;;;;0.40;0.40;;;3.40;99.90;;;;;;4914461;29;20218;-69
2023/02/25 06:38:54;;;;;;;0.30;0.30;;;3.40;99.90;;;;;;4912655;29;20920;-69
2023/02/25 06:41:23;;;;;;;0.25;0.25;;;3.40;99.90;;;;;;4903543;29;20230;-69
2023/02/25 06:43:52;;;;;;;1.95;0.20;;;3.40;99.90;;;;;;4913404;29;20230;-69
2023/02/25 06:46:21;;;;;;;0.43;0.43;;;3.40;99.90;;;;;;4914629;29;20234;-69
2023/02/25 06:48:48;;;;;;;0.10;0.10;;;3.30;99.90;;;;;;4907243;29;20203;-69
2023/02/25 06:51:15;;;;;;;0.22;0.22;;;3.30;99.90;;;;;;4907982;29;20231;-69
2023/02/25 06:53:44;;;;;;;0.22;0.22;;;3.30;99.90;;;;;;4911225;29;20225;-69
2023/02/25 06:56:13;;;;;;;0.30;0.30;;;3.30;99.90;;;;;;4913479;29;20259;-68
2023/02/25 06:58:40;;;;;;;0.20;0.20;;;3.30;99.90;;;;;;4896723;29;20699;-69
2023/02/25 07:01:09;;;;;;;0.10;0.10;;;3.20;99.90;;;;;;4913426;29;20253;-68
2023/02/25 07:03:36;;;;;;;0.30;0.30;;;3.20;99.90;;;;;;4906549;29;20257;-69
2023/02/25 07:06:04;;;;;;;0.52;0.50;;;3.20;99.90;;;;;;4909396;29;20413;-69
2023/02/25 07:08:31;;;;;;;0.60;0.60;;;3.20;99.90;;;;;;4905594;29;20218;-69
2023/02/25 07:11:10;;;;;;;0.10;0.10;;;3.20;99.90;;;;;;4911065;29;20741;-69
2023/02/25 07:13:36;;;;;;;0.28;0.28;;;3.20;99.90;;;;;;4904067;29;20218;-69
2023/02/25 07:16:03;;;;;;;0.30;0.30;;;3.20;99.90;;;;;;4905682;29;20219;-68
2023/02/25 07:18:31;;;;;;;0.73;0.73;;;3.20;99.90;;;;;;4904040;29;20203;-68
2023/02/25 07:20:58;;;;;;;0.50;0.50;;;3.20;99.90;;;;;;4907006;29;20234;-69
2023/02/25 07:23:25;;;;;;;0.45;0.45;;;3.20;99.90;;;;;;4912339;29;20222;-68
2023/02/25 07:25:51;;;;;;;0.20;0.20;;;3.20;99.90;;;;;;4906639;29;20211;-68
2023/02/25 07:28:18;;;;;;;0.38;0.38;;;3.10;99.90;;;;;;4904379;29;20704;-68
2023/02/25 07:30:45;;;;;;;0.30;0.30;;;3.10;99.90;;;;;;4906040;29;20222;-68
2023/02/25 07:33:12;;;;;;;0.30;0.30;;;3.20;99.90;;;;;;4905569;29;20207;-68
2023/02/25 07:35:40;;;;;;;0.32;0.32;;;3.20;99.90;;;;;;4908020;29;20214;-68
2023/02/25 07:38:06;;;;;;;0.20;0.20;;;3.20;99.90;;;;;;4912740;29;20210;-69
2023/02/25 07:40:33;;;;;;;5.55;0.43;;;3.20;99.90;;;;;;4907530;29;20735;-68
2023/02/25 07:43:00;;;;;;;1.33;1.23;;;3.20;99.90;;;;;;4898496;29;20223;-69
2023/02/25 07:45:27;;;;;;;0.20;0.20;;;3.20;99.90;;;;;;4903004;29;20613;-69
2023/02/25 07:47:53;;;;;;;0.10;0.10;;;3.30;99.90;;;;;;4908062;29;20682;-69
2023/02/25 07:50:20;;;;;;;0.20;0.20;;;3.30;99.90;;;;;;4906097;29;20214;-67
2023/02/25 07:52:49;;;;;;;0.10;0.10;;;3.30;99.90;;;;;;4904566;29;20222;-69
2023/02/25 07:55:15;;;;;;;0.68;0.55;;;3.30;99.90;;;;;;4905108;29;20216;-69
2023/02/25 07:57:43;;;;;;;0.10;0.10;;;3.30;99.90;;;;;;4908990;29;20212;-68
2023/02/25 08:00:11;;;;;;;0.10;0.10;;;3.30;99.90;;;;;;4908832;29;20202;-69
2023/02/25 08:02:38;;;;;;;0.20;0.20;;;3.30;99.90;;;;;;4910939;29;20202;-69
2023/02/25 08:05:05;;;;;;;0.10;0.10;;;3.20;99.90;;;;;;4909320;29;20237;-67
2023/02/25 08:07:32;;;;;;;0.30;0.30;;;3.30;99.90;;;;;;4905457;29;20211;-68
2023/02/25 08:10:01;;;;;;;0.10;0.10;;;3.30;99.90;;;;;;4911643;29;20237;-68
2023/02/25 08:12:27;;;;;;;0.20;0.20;;;3.40;99.90;;;;;;4910497;29;20269;-68
2023/02/25 08:14:56;;;;;;;0.20;0.20;;;3.40;99.90;;;;;;4901170;29;22574;-68
2023/02/25 08:17:23;;;;;;;0.20;0.20;;;3.40;99.90;;;;;;4908917;29;20735;-68
2023/02/25 08:19:49;;;;;;;0.10;0.10;;;3.50;99.90;;;;;;4907691;29;20677;-68
2023/02/25 08:22:16;;;;;;;0.10;0.10;;;3.50;99.90;;;;;;4908297;29;20238;-66
2023/02/25 08:24:43;;;;;;;0.65;0.65;;;3.50;99.90;;;;;;4909102;29;20231;-66
2023/02/25 08:27:11;;;;;;;0.32;0.32;;;3.60;99.90;;;;;;4908149;29;20310;-67
2023/02/25 08:29:38;;;;;;;0.10;0.10;;;3.60;99.90;;;;;;4909100;29;20215;-67
2023/02/25 08:32:06;;;;;;;0.20;0.20;;;3.60;99.90;;;;;;4913280;29;20235;-66
2023/02/25 08:34:33;;;;;;;0.20;0.20;;;3.70;99.90;;;;;;4913835;29;20206;-66
2023/02/25 08:37:01;;;;;;;0.10;0.10;;;3.80;99.90;;;;;;4916568;29;20221;-67
2023/02/25 08:39:28;;;;;;;0.20;0.20;;;3.80;99.90;;;;;;4914494;29;20723;-67
2023/02/25 08:41:55;;;;;;;0.20;0.20;;;3.80;99.90;;;;;;4905346;29;20298;-68
2023/02/25 08:44:23;;;;;;;0.10;0.10;;;3.80;99.90;;;;;;4908782;29;20746;-68
2023/02/25 08:46:50;;;;;;;0.20;0.20;;;3.80;99.90;;;;;;4908345;29;20207;-68
2023/02/25 08:49:17;;;;;;;0.10;0.10;;;3.70;99.90;;;;;;4916061;29;20241;-68
2023/02/25 08:51:43;;;;;;;0.30;0.30;;;3.70;99.90;;;;;;4911015;29;20235;-69
2023/02/25 08:54:13;;;;;;;0.10;0.10;;;3.70;99.90;;;;;;4912274;29;20206;-69
2023/02/25 08:56:43;;;;;;;0.30;0.30;;;3.80;99.90;;;;;;4913380;29;20219;-69
2023/02/25 08:59:11;;;;;;;0.10;0.10;;;3.70;99.90;;;;;;4910380;29;20207;-69
2023/02/25 09:01:47;;;;;;;0.20;0.20;;;3.70;99.90;;;;;;4912827;29;20242;-69
2023/02/25 09:04:17;;;;;;;0.30;0.30;;;3.60;99.90;;;;;;4910469;29;20312;-69
2023/02/25 09:06:46;;;;;;;0.45;0.45;;;3.60;99.90;;;;;;4909347;29;20219;-69
2023/02/25 09:09:13;;;;;;;0.20;0.20;;;3.60;99.90;;;;;;4908382;29;20714;-66
2023/02/25 09:11:40;;;;;;;0.43;0.28;;;3.60;99.90;;;;;;4908412;29;20239;-69
2023/02/25 09:14:06;;;;;;;0.30;0.30;;;3.60;99.90;;;;;;4908843;29;20199;-67
2023/02/25 09:16:34;;;;;;;0.10;0.10;;;3.60;99.90;;;;;;4908745;29;20274;-68
2023/02/25 09:19:02;;;;;;;0.10;0.10;;;3.60;99.90;;;;;;4915020;29;20575;-67
2023/02/25 09:21:29;;;;;;;0.30;0.30;;;3.70;99.90;;;;;;4916266;29;20234;-67
2023/02/25 09:23:57;;;;;;;0.20;0.20;;;3.80;99.90;;;;;;4916436;29;20313;-68
2023/02/25 09:26:23;;;;;;;0.10;0.10;;;3.80;99.90;;;;;;4915842;29;20241;-68
2023/02/25 09:28:50;;;;;;;0.40;0.40;;;3.80;99.90;;;;;;4912362;29;20211;-68
2023/02/25 09:31:18;;;;;;;0.50;0.50;;;3.70;99.90;;;;;;4912087;29;20695;-69
2023/02/25 09:33:45;;;;;;;0.10;0.10;;;3.80;99.90;;;;;;4900369;29;20195;-66
2023/02/25 09:36:15;;;;;;;0.40;0.40;;;4.00;99.90;;;;;;4908793;29;20218;-69
2023/02/25 09:38:43;;;;;;;0.20;0.20;;;4.00;99.90;;;;;;4900698;29;20233;-67
2023/02/25 09:41:21;;;;;;;0.20;0.20;;;4.00;99.90;;;;;;4903441;29;20231;-68
2023/02/25 09:43:52;;;;;;;0.52;0.52;;;4.10;99.90;;;;;;4910929;29;20229;-68
2023/02/25 09:46:19;;;;;;;4.07;0.85;;;4.00;99.90;;;;;;4915604;29;20211;-67
2023/02/25 09:48:54;;;;;;;0.47;0.47;;;4.00;99.90;;;;;;4907892;29;20203;-68
2023/02/25 09:51:26;;;;;;;0.20;0.20;;;3.80;99.90;;;;;;4915725;29;20268;-67
2023/02/25 09:53:56;;;;;;;0.30;0.30;;;3.70;99.90;;;;;;4905034;29;20203;-69
2023/02/25 09:56:26;;;;;;;2.40;0.65;;;3.50;99.90;;;;;;4909380;29;20210;-69
2023/02/25 09:58:56;;;;;;;0.50;0.50;;;3.50;99.90;;;;;;4911422;29;20218;-70
2023/02/25 10:01:33;;;;;;;0.52;0.52;;;3.50;99.90;;;;;;4914192;29;20251;-70
2023/02/25 10:04:05;;;;;;;0.68;0.63;;;3.60;99.90;;;;;;4909459;29;20238;-70
2023/02/25 10:06:37;;;;;;;0.17;0.17;;;3.60;99.90;;;;;;4914866;29;20580;-70
2023/02/25 10:09:13;;;;;;;0.20;0.20;;;3.60;99.90;;;;;;4915907;29;20207;-69
2023/02/25 10:11:48;;;;;;;0.10;0.10;;;3.50;99.90;;;;;;4909929;29;20237;-67
2023/02/25 10:14:30;;;;;;;0.20;0.20;;;3.60;99.90;;;;;;4903974;29;20214;-69
2023/02/25 10:17:04;;;;;;;0.30;0.30;;;3.60;99.90;;;;;;4910159;29;20222;-70
2023/02/25 10:19:42;;;;;;;0.60;0.60;;;3.70;99.90;;;;;;4904860;29;20599;-69
2023/02/25 10:22:31;;;;;;;0.20;0.20;;;3.60;99.90;;;;;;4914459;29;20234;-71
2023/02/25 10:25:05;;;;;;;0.30;0.30;;;3.50;99.90;;;;;;4899133;29;20640;-70
2023/02/25 10:27:36;;;;;;;0.30;0.30;;;3.40;99.90;;;;;;4906122;29;20210;-69
2023/02/25 10:30:08;;;;;;;0.40;0.40;;;3.30;99.90;;;;;;4907798;29;20306;-69
2023/02/25 10:32:39;;;;;;;0.30;0.30;;;3.20;99.90;;;;;;4910287;29;20230;-69
2023/02/25 10:35:15;;;;;;;0.30;0.30;;;3.20;99.90;;;;;;4911646;29;20207;-70
2023/02/25 10:37:44;;;;;;;0.10;0.10;;;3.20;99.90;;;;;;4906612;29;20231;-72
2023/02/25 10:40:15;;;;;;;0.50;0.17;;;3.30;99.90;;;;;;4906003;29;20211;-69
2023/02/25 10:42:46;;;;;;;0.10;0.10;;;3.30;99.90;;;;;;4904346;29;20233;-69
2023/02/25 10:45:18;;;;;;;0.10;0.10;;;3.30;99.90;;;;;;4911173;29;20345;-69
2023/02/25 10:47:49;;;;;;;0.30;0.30;;;3.20;99.90;;;;;;4907384;29;20217;-69
2023/02/25 10:50:19;;;;;;;0.15;0.15;;;3.10;99.90;;;;;;4906154;29;20211;-68
2023/02/25 10:52:56;;;;;;;22.35;1.35;;;3.10;99.90;;;;;;4905226;29;20229;-69
2023/02/25 10:55:28;;;;;;;0.20;0.20;;;3.10;99.90;;;;;;4904985;29;20209;-70
2023/02/25 10:57:56;;;;;;;1.75;1.65;;;3.20;99.90;;;;;;4911267;29;20328;-70
2023/02/25 11:00:27;;;;;;;0.50;0.20;;;3.20;99.90;;;;;;4911126;29;20588;-71
2023/02/25 11:02:56;;;;;;;0.20;0.20;;;3.30;99.90;;;;;;4908820;29;20215;-69
2023/02/25 11:05:32;;;;;;;0.63;0.40;;;3.40;99.90;;;;;;4909717;29;20341;-70
2023/02/25 11:08:00;;;;;;;0.10;0.10;;;3.60;99.90;;;;;;4910885;29;20563;-69
2023/02/25 11:10:27;;;;;;;0.20;0.20;;;3.90;99.90;;;;;;4911241;29;20690;-70
2023/02/25 11:12:56;;;;;;;0.30;0.30;;;3.90;99.90;;;;;;4906227;29;20667;-70
2023/02/25 11:15:33;;;;;;;0.30;0.30;;;3.90;99.90;;;;;;4911285;29;20210;-70
2023/02/25 11:18:07;;;;;;;0.10;0.10;;;3.90;99.90;;;;;;4905542;29;20211;-69
2023/02/25 11:20:34;;;;;;;0.30;0.30;;;3.90;99.90;;;;;;4905218;29;20222;-68
2023/02/25 11:23:02;;;;;;;0.20;0.20;;;3.90;99.90;;;;;;4903615;29;20206;-68
2023/02/25 11:25:39;;;;;;;0.10;0.10;;;3.90;99.90;;;;;;4910445;29;20235;-67
2023/02/25 11:28:16;;;;;;;0.95;0.95;;;3.90;99.90;;;;;;4913166;29;20234;-69
2023/02/25 11:30:44;;;;;;;0.20;0.20;;;3.90;99.90;;;;;;4933266;29;20231;-70
2023/02/25 11:33:21;;;;;;;0.10;0.10;;;3.90;99.90;;;;;;4927659;29;20225;-69
2023/02/25 11:35:55;;;;;;;1.10;0.82;;;3.90;99.90;;;;;;4936503;29;20367;-69
2023/02/25 11:38:28;;;;;;;0.10;0.10;;;3.80;99.90;;;;;;4931326;29;20203;-69
2023/02/25 11:40:55;;;;;;;0.10;0.10;;;3.70;99.90;;;;;;4934201;29;20234;-70
2023/02/25 11:43:24;;;;;;;3.47;0.52;;;3.70;99.90;;;;;;4905106;29;20215;-68
2023/02/25 11:45:55;;;;;;;7.10;1.15;;;3.70;99.90;;;;;;4903136;29;20241;-67
2023/02/25 11:48:25;;;;;;;0.30;0.30;;;3.70;99.90;;;;;;4904833;29;20211;-68
2023/02/25 11:51:00;;;;;;;0.10;0.10;;;3.60;99.90;;;;;;4910161;29;20230;-68
2023/02/25 11:54:19;;;;;;;0.20;0.20;;;3.70;99.90;;;;;;4911236;29;20602;-67
2023/02/25 11:56:50;;;;;;;0.82;0.40;;;3.80;99.90;;;;;;4899267;29;20601;-67
2023/02/25 11:59:34;;;;;;;0.10;0.10;;;3.90;99.90;;;;;;4912873;29;20218;-68
2023/02/25 12:02:20;;;;;;;0.20;0.20;;;4.10;99.90;;;;;;4898261;29;20242;-68
2023/02/25 12:05:17;;;;;;;0.10;0.10;;;4.10;99.90;;;;;;4899223;29;20299;-67
2023/02/25 12:07:58;;;;;;;0.38;0.38;;;4.20;99.90;;;;;;4907163;29;20216;-68
2023/02/25 12:10:52;;;;;;;0.10;0.10;;;4.10;99.90;;;;;;4912769;29;20210;-68
2023/02/25 12:13:51;;;;;;;13.05;0.38;;;4.20;99.90;;;;;;4898689;29;20278;-68
2023/02/25 12:16:50;;;;;;;0.10;0.10;;;4.30;99.90;;;;;;4906602;29;20298;-68
2023/02/25 12:19:46;;;;;;;0.68;0.68;;;4.30;99.90;;;;;;4908139;29;20216;-68
2023/02/25 12:22:25;;;;;;;0.10;0.10;;;4.30;99.90;;;;;;4898615;29;20239;-68
2023/02/25 12:25:09;;;;;;;0.35;0.35;;;4.20;99.90;;;;;;4902575;29;20647;-69
2023/02/25 12:27:54;;;;;;;0.10;0.10;;;4.20;99.90;;;;;;4909998;29;20290;-68
2023/02/25 12:30:59;;;;;;;0.95;0.90;;;4.30;99.90;;;;;;4908229;29;20210;-70
2023/02/25 12:33:52;;;;;;;0.30;0.30;;;4.30;99.90;;;;;;4911897;29;20686;-68
2023/02/25 12:36:34;;;;;;;1.75;1.15;;;4.50;99.90;;;;;;4905777;29;20207;-68
2023/02/25 12:39:24;;;;;;;0.10;0.10;;;4.40;99.90;;;;;;4898530;29;20218;-68
2023/02/25 12:42:00;;;;;;;0.10;0.10;;;4.40;99.90;;;;;;4902529;29;20237;-69
2023/02/25 12:45:00;;;;;;;0.20;0.20;;;4.50;99.90;;;;;;4909920;29;20678;-69
2023/02/25 12:47:51;;;;;;;0.10;0.10;;;4.60;99.90;;;;;;4911772;29;20203;-69
2023/02/25 12:50:47;;;;;;;0.40;0.40;;;4.90;99.90;;;;;;4908425;29;20298;-69
2023/02/25 12:53:26;;;;;;;0.10;0.10;;;4.90;99.90;;;;;;4909221;29;20298;-69
2023/02/25 12:56:12;;;;;;;0.22;0.22;;;5.00;99.90;;;;;;4907752;29;20210;-68
2023/02/25 12:59:09;;;;;;;8.38;1.10;;;5.00;99.90;;;;;;4903700;29;20231;-68
2023/02/25 13:01:53;;;;;;;0.25;0.20;;;4.90;99.90;;;;;;4896654;29;20699;-69
2023/02/25 13:04:43;;;;;;;0.30;0.30;;;4.90;99.90;;;;;;4902268;29;21196;-69
2023/02/25 13:07:34;;;;;;;0.40;0.40;;;4.90;99.90;;;;;;4901033;29;20234;-69
2023/02/25 13:10:18;;;;;;;0.25;0.25;;;4.90;99.90;;;;;;4912586;29;20210;-68
2023/02/25 13:13:05;;;;;;;0.20;0.20;;;4.90;99.90;;;;;;4923027;29;20214;-69
2023/02/25 13:15:55;;;;;;;4.43;0.95;;;4.80;99.90;;;;;;4915017;29;20217;-68
2023/02/25 13:18:33;;;;;;;0.25;0.25;;;4.90;99.90;;;;;;4913929;29;20209;-68
2023/02/25 13:21:22;;;;;;;3.40;1.55;;;5.00;99.90;;;;;;4918705;29;20706;-68
2023/02/25 13:24:08;;;;;;;0.20;0.20;;;5.00;99.90;;;;;;4910273;29;20207;-67
2023/02/25 13:26:59;;;;;;;0.77;0.77;;;5.00;99.90;;;;;;4905597;29;20206;-68
2023/02/25 13:29:34;;;;;;;0.10;0.10;;;5.00;99.90;;;;;;4905463;29;20206;-68
2023/02/25 13:32:25;;;;;;;0.20;0.20;;;5.10;99.90;;;;;;4904916;29;20230;-65
2023/02/25 13:35:12;;;;;;;0.20;0.20;;;5.10;99.90;;;;;;4921871;29;20206;-67
2023/02/25 13:37:51;;;;;;;1.55;0.77;;;5.10;99.90;;;;;;4926403;29;20214;-66
2023/02/25 13:40:34;;;;;;;0.30;0.30;;;5.00;99.90;;;;;;4919826;29;20222;-66
2023/02/25 13:43:13;;;;;;;0.22;0.22;;;4.90;99.90;;;;;;4909301;29;20296;-66
2023/02/25 13:46:19;;;;;;;0.10;0.10;;;4.90;99.90;;;;;;4908876;29;20843;-67
2023/02/25 13:49:28;;;;;;;0.30;0.30;;;5.10;99.90;;;;;;4918593;29;20233;-67
2023/02/25 13:52:10;;;;;;;0.30;0.30;;;5.00;99.90;;;;;;4921018;29;20334;-67
2023/02/25 13:55:02;;;;;;;0.17;0.17;;;5.00;99.90;;;;;;4915323;29;20213;-66
2023/02/25 13:57:44;;;;;;;2.30;1.42;;;4.90;99.90;;;;;;4902091;29;20664;-67
2023/02/25 14:00:37;;;;;;;0.10;0.10;;;4.80;99.90;;;;;;4908030;29;20562;-68
2023/02/25 14:03:41;;;;;;;0.10;0.10;;;4.80;99.90;;;;;;4905321;29;20310;-67
2023/02/25 14:06:28;;;;;;;0.65;0.20;;;4.90;99.90;;;;;;4933806;29;20236;-68
2023/02/25 14:09:16;;;;;;;0.30;0.30;;;4.80;99.90;;;;;;4921231;29;20274;-67
2023/02/25 14:11:52;;;;;;;0.20;0.20;;;4.80;99.90;;;;;;4919660;29;20230;-67
2023/02/25 14:14:38;;;;;;;0.20;0.20;;;4.80;99.90;;;;;;4930330;29;20260;-67
2023/02/25 14:17:39;;;;;;;0.20;0.20;;;4.80;99.90;;;;;;4903817;29;20232;-68
2023/02/25 14:20:21;;;;;;;0.20;0.20;;;4.80;99.90;;;;;;4903226;29;20311;-67
2023/02/25 14:22:51;;;;;;;0.10;0.10;;;4.70;99.90;;;;;;4911071;29;21763;-67
2023/02/25 14:25:38;;;;;;;1.88;0.50;;;4.70;99.90;;;;;;4908670;29;20220;-67
2023/02/25 14:28:16;;;;;;;0.20;0.20;;;4.70;99.90;;;;;;4900904;29;20218;-67
2023/02/25 14:30:56;;;;;;;0.63;0.63;;;4.70;99.90;;;;;;4910402;29;20300;-68
2023/02/25 14:33:50;;;;;;;1.98;1.95;;;4.60;99.90;;;;;;4904833;29;20277;-68
2023/02/25 14:36:36;;;;;;;0.10;0.10;;;4.70;99.90;;;;;;4902937;29;20213;-68
2023/02/25 14:39:22;;;;;;;0.10;0.10;;;4.60;99.90;;;;;;4910909;29;20218;-68
2023/02/25 14:42:03;;;;;;;0.40;0.40;;;4.60;99.90;;;;;;4903455;29;20296;-67
2023/02/25 14:44:36;;;;;;;0.10;0.10;;;4.60;99.90;;;;;;4906791;29;20198;-69
2023/02/25 14:47:09;;;;;;;0.20;0.20;;;4.60;99.90;;;;;;4908117;29;20329;-68
2023/02/25 14:49:43;;;;;;;0.10;0.10;;;4.60;99.90;;;;;;4904520;29;20195;-68
2023/02/25 14:52:31;;;;;;;1.15;1.05;;;4.60;99.90;;;;;;4900459;29;20227;-70
2023/02/25 14:55:31;;;;;;;0.20;0.20;;;4.60;99.90;;;;;;4909723;29;20281;-68
2023/02/25 14:58:23;;;;;;;0.20;0.20;;;4.70;99.90;;;;;;4899538;29;20214;-68
2023/02/25 15:01:20;;;;;;;0.50;0.50;;;4.70;99.90;;;;;;4914251;29;20337;-68
2023/02/25 15:04:12;;;;;;;1.63;0.38;;;4.70;99.90;;;;;;4911920;29;20207;-68
2023/02/25 15:07:01;;;;;;;0.20;0.20;;;4.60;99.90;;;;;;4917172;29;20580;-68
2023/02/25 15:10:13;;;;;;;0.10;0.10;;;4.60;99.90;;;;;;4928739;29;20207;-67
2023/02/25 15:13:11;;;;;;;0.40;0.40;;;4.50;99.90;;;;;;4903893;29;20286;-68
2023/02/25 15:16:15;;;;;;;0.90;0.90;;;4.50;99.90;;;;;;4906360;29;20675;-68
2023/02/25 15:19:20;;;;;;;0.30;0.30;;;4.60;99.90;;;;;;4900521;29;20221;-69
2023/02/25 15:21:48;;;;;;;1.30;0.85;;;4.70;99.90;;;;;;4922431;29;20579;-69
2023/02/25 15:24:37;;;;;;;0.40;0.40;;;4.80;99.90;;;;;;4916079;29;20233;-68
2023/02/25 15:27:48;;;;;;;15.50;0.65;;;4.70;99.90;;;;;;4906027;29;20218;-68
2023/02/25 15:30:17;;;;;;;0.30;0.30;;;4.10;99.90;;;;;;4901980;29;20586;-69
2023/02/25 15:33:14;;;;;;;0.77;0.63;;;4.70;99.90;;;;;;4913813;29;20627;-68
2023/02/25 15:35:58;;;;;;;0.20;0.20;;;4.60;99.90;;;;;;4904533;29;20218;-67
2023/02/25 15:38:45;;;;;;;0.20;0.20;;;4.50;99.90;;;;;;4904225;29;20239;-69
2023/02/25 15:41:52;;;;;;;0.10;0.10;;;4.50;99.90;;;;;;4909444;29;20253;-68
2023/02/25 15:44:46;;;;;;;0.68;0.50;;;4.50;99.90;;;;;;4911915;29;20210;-68
2023/02/25 15:47:33;;;;;;;0.20;0.20;;;4.40;99.90;;;;;;4910601;29;20532;-67
2023/02/25 15:50:03;;;;;;;0.10;0.10;;;4.40;99.90;;;;;;4907146;29;20209;-68
2023/02/25 15:52:55;;;;;;;0.20;0.20;;;4.30;99.90;;;;;;4912546;29;20234;-69
2023/02/25 15:55:37;;;;;;;3.60;0.50;;;4.30;99.90;;;;;;4898481;29;20210;-69
2023/02/25 15:58:42;;;;;;;1.05;0.98;;;4.20;99.90;;;;;;4911597;29;20206;-68
2023/02/25 16:01:41;;;;;;;0.10;0.10;;;4.20;99.90;;;;;;4913605;29;20242;-68
2023/02/25 16:04:44;;;;;;;0.20;0.20;;;4.10;99.90;;;;;;4911753;29;20210;-69
2023/02/25 16:07:16;;;;;;;0.45;0.45;;;4.10;99.90;;;;;;4908076;29;20202;-68
2023/02/25 16:09:50;;;;;;;0.30;0.30;;;4.10;99.90;;;;;;4911795;29;20809;-68
2023/02/25 16:12:18;;;;;;;0.17;0.17;;;4.10;99.90;;;;;;4907140;29;20238;-68
2023/02/25 16:14:45;;;;;;;0.17;0.17;;;4.10;99.90;;;;;;4902647;29;20630;-67
2023/02/25 16:17:18;;;;;;;0.20;0.20;;;4.10;99.90;;;;;;4912634;29;20556;-68
2023/02/25 16:19:50;;;;;;;0.43;0.43;;;4.00;99.90;;;;;;4929555;29;20207;-68
2023/02/25 16:22:21;;;;;;;0.60;0.60;;;4.00;99.90;;;;;;4928593;29;20234;-68
2023/02/25 16:24:50;;;;;;;0.10;0.10;;;3.90;99.90;;;;;;4932802;29;20210;-68
2023/02/25 16:27:25;;;;;;;0.50;0.30;;;3.80;99.90;;;;;;4920925;29;20556;-69
2023/02/25 16:29:59;;;;;;;0.22;0.22;;;3.70;99.90;;;;;;4910670;29;20214;-69
2023/02/25 16:32:35;;;;;;;0.43;0.40;;;3.70;99.90;;;;;;4904003;29;20714;-69
2023/02/25 16:35:08;;;;;;;1.70;0.85;;;3.60;99.90;;;;;;4909437;29;20214;-68
2023/02/25 16:37:44;;;;;;;0.73;0.60;;;3.60;99.90;;;;;;4913462;29;20672;-68
2023/02/25 16:40:16;;;;;;;1.58;0.88;;;3.50;99.90;;;;;;4918069;29;20202;-68
2023/02/25 16:42:44;;;;;;;0.30;0.30;;;3.40;99.90;;;;;;4909312;29;20664;-68
2023/02/25 16:45:24;;;;;;;0.30;0.30;;;3.40;99.90;;;;;;4908565;29;20314;-69
2023/02/25 16:47:56;;;;;;;0.50;0.50;;;3.30;99.90;;;;;;4912857;29;20219;-68
2023/02/25 16:50:25;;;;;;;0.25;0.25;;;3.30;99.90;;;;;;4901853;29;20311;-69
2023/02/25 16:52:53;;;;;;;0.30;0.30;;;3.20;99.90;;;;;;4918886;29;20379;-68
2023/02/25 16:55:23;;;;;;;0.50;0.50;;;3.20;99.90;;;;;;4936802;29;20205;-68
2023/02/25 16:58:19;;;;;;;0.40;0.40;;;3.20;99.90;;;;;;4911957;29;20278;-68
2023/02/25 17:00:50;;;;;;;0.10;0.10;;;3.20;99.90;;;;;;4915768;29;20253;-68
2023/02/25 17:03:18;;;;;;;0.70;0.70;;;3.10;99.90;;;;;;4909809;29;20215;-68
2023/02/25 17:05:57;;;;;;;0.30;0.30;;;3.10;99.90;;;;;;4917184;29;20234;-68
2023/02/25 17:08:25;;;;;;;0.43;0.43;;;2.90;99.90;;;;;;4910464;29;20664;-68
2023/02/25 17:10:55;;;;;;;0.20;0.20;;;3.00;99.90;;;;;;4921564;29;20580;-67
2023/02/25 17:13:26;;;;;;;0.20;0.20;;;3.00;99.90;;;;;;4915075;29;20214;-71
2023/02/25 17:15:53;;;;;;;0.60;0.60;;;2.90;99.90;;;;;;4916551;29;20314;-69
2023/02/25 17:18:25;;;;;;;0.20;0.20;;;2.90;99.90;;;;;;4929360;29;20210;-69
2023/02/25 17:21:00;;;;;;;0.20;0.20;;;2.80;99.90;;;;;;4899629;29;20704;-70
2023/02/25 17:23:29;;;;;;;0.20;0.20;;;2.80;99.90;;;;;;4905381;29;20226;-67
2023/02/25 17:25:58;;;;;;;0.10;0.10;;;2.80;99.90;;;;;;4908901;29;20723;-70
2023/02/25 17:28:29;;;;;;;0.10;0.10;;;2.80;99.90;;;;;;4916932;29;20553;-68
2023/02/25 17:31:07;;;;;;;0.50;0.50;;;3.00;99.90;;;;;;4915695;29;20297;-69
2023/02/25 17:33:34;;;;;;;0.32;0.32;;;2.70;99.90;;;;;;4916913;29;20582;-68
2023/02/25 17:36:12;;;;;;;0.68;0.68;;;2.60;99.90;;;;;;4918985;29;20575;-68
2023/02/25 17:38:42;;;;;;;0.63;0.63;;;2.70;99.90;;;;;;4922604;29;20202;-67
2023/02/25 17:41:14;;;;;;;1.30;1.30;;;2.60;99.90;;;;;;4905840;29;20234;-68
2023/02/25 17:43:41;;;;;;;0.32;0.32;;;2.50;99.90;;;;;;4902047;29;20199;-68
2023/02/25 17:46:17;;;;;;;0.40;0.40;;;2.50;99.90;;;;;;4914534;29;20234;-68
2023/02/25 17:48:51;;;;;;;2.28;2.28;;;2.50;99.90;;;;;;4915895;29;20210;-70
2023/02/25 17:51:27;;;;;;;1.40;1.38;;;2.40;99.90;;;;;;4915219;29;20794;-70
2023/02/25 17:53:57;;;;;;;0.63;0.63;;;2.40;99.90;;;;;;4913524;29;20217;-68
2023/02/25 17:56:27;;;;;;;0.50;0.50;;;2.40;99.90;;;;;;4906024;29;20195;-70
2023/02/25 17:59:00;;;;;;;3.22;1.58;;;2.30;99.90;;;;;;4905337;29;20221;-68
2023/02/25 18:01:29;;;;;;;4.40;1.70;;;2.30;99.90;;;;;;4914223;29;22872;-68
2023/02/25 18:03:58;;;;;;;1.25;1.25;;;2.20;99.90;;;;;;4914155;29;20265;-68
2023/02/25 18:06:39;;;;;;;2.05;1.95;;;2.20;99.90;;;;;;4913878;29;20564;-68
2023/02/25 18:09:39;;;;;;;0.88;0.88;;;2.20;99.90;;;;;;4908857;29;20647;-68
2023/02/25 18:12:14;;;;;;;0.90;0.90;;;2.10;99.90;;;;;;4910231;29;20238;-68
2023/02/25 18:14:44;;;;;;;4.53;2.38;;;2.10;99.90;;;;;;4924778;29;20202;-68
2023/02/25 18:17:22;;;;;;;1.70;1.70;;;2.10;99.90;;;;;;4915858;29;20237;-68
2023/02/25 18:19:49;;;;;;;0.60;0.60;;;2.10;99.90;;;;;;4908056;29;20202;-68
2023/02/25 18:22:31;;;;;;;1.23;1.23;;;2.10;99.90;;;;;;4910628;29;20253;-67
2023/02/25 18:25:01;;;;;;;0.73;0.40;;;2.10;99.90;;;;;;4916625;29;20206;-68
2023/02/25 18:27:31;;;;;;;0.30;0.30;;;2.00;99.90;;;;;;4911164;29;20218;-69
2023/02/25 18:30:04;;;;;;;0.73;0.73;;;2.10;99.90;;;;;;4926055;29;20296;-67
2023/02/25 18:32:31;;;;;;;1.00;1.00;;;2.00;99.90;;;;;;4917447;29;20727;-70
2023/02/25 18:34:58;;;;;;;0.55;0.55;;;2.00;99.90;;;;;;4915936;29;20218;-67
2023/02/25 18:37:26;;;;;;;0.93;0.93;;;2.00;99.90;;;;;;4923289;29;20213;-67
2023/02/25 18:39:53;;;;;;;0.30;0.30;;;2.00;99.90;;;;;;4923882;29;20222;-67